sensor_id;sensor_type;location;lat;lon;timestamp;pressure;altitude;pressure_sealevel;temperature;humidity
60437;BME280;46289;51.992;4.498;2023-02-14T00:01:50;103707.63;;;2.00;92.17
60437;BME280;46289;51.992;4.498;2023-02-14T00:03:55;103716.88;;;1.93;91.86
60437;BME280;46289;51.992;4.498;2023-02-14T00:06:06;103711.59;;;1.92;91.90
60437;BME280;46289;51.992;4.498;2023-02-14T00:08:11;103711.03;;;1.99;92.89
60437;BME280;46289;51.992;4.498;2023-02-14T00:10:16;103705.75;;;1.96;92.22
60437;BME280;46289;51.992;4.498;2023-02-14T00:12:21;103710.91;;;1.96;92.30
60437;BME280;46289;51.992;4.498;2023-02-14T00:14:31;103712.50;;;1.92;91.75
60437;BME280;46289;51.992;4.498;2023-02-14T00:16:48;103709.97;;;1.94;92.75
60437;BME280;46289;51.992;4.498;2023-02-14T00:18:53;103702.91;;;1.90;92.31
60437;BME280;46289;51.992;4.498;2023-02-14T00:21:07;103708.31;;;1.96;93.11
60437;BME280;46289;51.992;4.498;2023-02-14T00:23:12;103709.28;;;1.98;92.64
60437;BME280;46289;51.992;4.498;2023-02-14T00:25:17;103698.97;;;2.00;93.43
60437;BME280;46289;51.992;4.498;2023-02-14T00:27:22;103690.41;;;2.02;93.50
60437;BME280;46289;51.992;4.498;2023-02-14T00:29:31;103693.28;;;2.08;93.84
60437;BME280;46289;51.992;4.498;2023-02-14T00:31:40;103684.66;;;2.09;93.60
60437;BME280;46289;51.992;4.498;2023-02-14T00:33:45;103689.09;;;2.12;93.86
60437;BME280;46289;51.992;4.498;2023-02-14T00:35:50;103684.53;;;2.06;92.73
60437;BME280;46289;51.992;4.498;2023-02-14T00:37:55;103679.28;;;2.05;94.06
60437;BME280;46289;51.992;4.498;2023-02-14T00:40:00;103682.47;;;1.97;93.40
60437;BME280;46289;51.992;4.498;2023-02-14T00:42:09;103686.59;;;1.92;92.98
60437;BME280;46289;51.992;4.498;2023-02-14T00:44:14;103683.91;;;1.91;93.62
60437;BME280;46289;51.992;4.498;2023-02-14T00:46:23;103684.78;;;1.91;94.06
60437;BME280;46289;51.992;4.498;2023-02-14T00:48:28;103678.81;;;1.92;94.31
60437;BME280;46289;51.992;4.498;2023-02-14T00:50:33;103677.66;;;1.86;92.92
60437;BME280;46289;51.992;4.498;2023-02-14T00:52:39;103678.53;;;1.86;93.15
60437;BME280;46289;51.992;4.498;2023-02-14T00:54:44;103680.44;;;1.90;94.41
60437;BME280;46289;51.992;4.498;2023-02-14T00:56:52;103674.19;;;1.85;92.87
60437;BME280;46289;51.992;4.498;2023-02-14T00:58:57;103682.75;;;1.84;93.37
60437;BME280;46289;51.992;4.498;2023-02-14T01:01:02;103679.25;;;1.82;93.49
60437;BME280;46289;51.992;4.498;2023-02-14T01:03:10;103678.34;;;1.82;93.35
60437;BME280;46289;51.992;4.498;2023-02-14T01:05:15;103667.16;;;1.83;94.07
60437;BME280;46289;51.992;4.498;2023-02-14T01:07:20;103662.94;;;1.85;94.89
60437;BME280;46289;51.992;4.498;2023-02-14T01:09:25;103662.78;;;1.82;94.78
60437;BME280;46289;51.992;4.498;2023-02-14T01:11:30;103669.69;;;1.81;94.54
60437;BME280;46289;51.992;4.498;2023-02-14T01:13:37;103658.31;;;1.78;94.36
60437;BME280;46289;51.992;4.498;2023-02-14T01:15:47;103667.69;;;1.74;93.82
60437;BME280;46289;51.992;4.498;2023-02-14T01:17:52;103672.78;;;1.72;93.69
60437;BME280;46289;51.992;4.498;2023-02-14T01:20:04;103665.69;;;1.68;93.23
60437;BME280;46289;51.992;4.498;2023-02-14T01:22:10;103667.41;;;1.68;94.60
60437;BME280;46289;51.992;4.498;2023-02-14T01:24:15;103657.75;;;1.64;94.60
60437;BME280;46289;51.992;4.498;2023-02-14T01:26:21;103660.06;;;1.58;93.54
60437;BME280;46289;51.992;4.498;2023-02-14T01:28:26;103662.53;;;1.54;93.14
60437;BME280;46289;51.992;4.498;2023-02-14T01:30:31;103657.13;;;1.50;92.97
60437;BME280;46289;51.992;4.498;2023-02-14T01:32:38;103660.47;;;1.47;93.16
60437;BME280;46289;51.992;4.498;2023-02-14T01:34:43;103657.00;;;1.47;93.65
60437;BME280;46289;51.992;4.498;2023-02-14T01:36:51;103663.06;;;1.47;93.76
60437;BME280;46289;51.992;4.498;2023-02-14T01:38:58;103661.31;;;1.46;93.27
60437;BME280;46289;51.992;4.498;2023-02-14T01:41:04;103665.50;;;1.43;93.31
60437;BME280;46289;51.992;4.498;2023-02-14T01:43:13;103660.31;;;1.43;93.45
60437;BME280;46289;51.992;4.498;2023-02-14T01:45:21;103666.28;;;1.42;93.69
60437;BME280;46289;51.992;4.498;2023-02-14T01:47:28;103658.41;;;1.39;93.93
60437;BME280;46289;51.992;4.498;2023-02-14T01:49:38;103653.91;;;1.35;93.61
60437;BME280;46289;51.992;4.498;2023-02-14T01:51:49;103662.38;;;1.30;93.15
60437;BME280;46289;51.992;4.498;2023-02-14T01:53:59;103660.72;;;1.33;93.43
60437;BME280;46289;51.992;4.498;2023-02-14T01:56:08;103663.25;;;1.31;93.53
60437;BME280;46289;51.992;4.498;2023-02-14T01:58:20;103665.84;;;1.31;93.94
60437;BME280;46289;51.992;4.498;2023-02-14T02:00:27;103658.19;;;1.34;94.56
60437;BME280;46289;51.992;4.498;2023-02-14T02:02:46;103663.19;;;1.29;94.01
60437;BME280;46289;51.992;4.498;2023-02-14T02:04:52;103662.16;;;1.26;93.40
60437;BME280;46289;51.992;4.498;2023-02-14T02:07:02;103663.88;;;1.25;93.59
60437;BME280;46289;51.992;4.498;2023-02-14T02:09:16;103663.75;;;1.22;93.12
60437;BME280;46289;51.992;4.498;2023-02-14T02:11:22;103658.44;;;1.19;93.04
60437;BME280;46289;51.992;4.498;2023-02-14T02:13:27;103656.63;;;1.18;93.65
60437;BME280;46289;51.992;4.498;2023-02-14T02:15:37;103654.75;;;1.14;93.35
60437;BME280;46289;51.992;4.498;2023-02-14T02:17:52;103653.72;;;1.10;93.70
60437;BME280;46289;51.992;4.498;2023-02-14T02:25:35;103658.63;;;1.04;94.00
60437;BME280;46289;51.992;4.498;2023-02-14T02:28:03;103656.00;;;1.03;93.80
60437;BME280;46289;51.992;4.498;2023-02-14T02:36:05;103651.47;;;0.99;93.99
60437;BME280;46289;51.992;4.498;2023-02-14T02:38:22;103646.22;;;0.97;94.40
60437;BME280;46289;51.992;4.498;2023-02-14T02:40:43;103646.84;;;0.92;93.70
60437;BME280;46289;51.992;4.498;2023-02-14T02:42:55;103642.50;;;0.91;94.11
60437;BME280;46289;51.992;4.498;2023-02-14T02:45:11;103651.84;;;0.87;93.63
60437;BME280;46289;51.992;4.498;2023-02-14T02:47:26;103642.22;;;0.84;93.60
60437;BME280;46289;51.992;4.498;2023-02-14T02:49:43;103639.66;;;0.84;93.71
60437;BME280;46289;51.992;4.498;2023-02-14T02:52:07;103637.84;;;0.83;93.68
60437;BME280;46289;51.992;4.498;2023-02-14T02:54:30;103644.00;;;0.85;94.27
60437;BME280;46289;51.992;4.498;2023-02-14T02:56:42;103634.50;;;0.86;94.35
60437;BME280;46289;51.992;4.498;2023-02-14T02:58:50;103631.88;;;0.84;94.01
60437;BME280;46289;51.992;4.498;2023-02-14T03:00:58;103631.25;;;0.90;94.77
60437;BME280;46289;51.992;4.498;2023-02-14T03:03:05;103629.69;;;0.94;95.12
60437;BME280;46289;51.992;4.498;2023-02-14T03:05:23;103636.78;;;0.98;95.20
60437;BME280;46289;51.992;4.498;2023-02-14T03:07:34;103634.94;;;0.95;94.96
60437;BME280;46289;51.992;4.498;2023-02-14T03:09:50;103633.22;;;0.96;95.00
60437;BME280;46289;51.992;4.498;2023-02-14T03:12:03;103627.31;;;0.98;95.05
60437;BME280;46289;51.992;4.498;2023-02-14T03:14:18;103625.66;;;1.00;94.60
60437;BME280;46289;51.992;4.498;2023-02-14T03:16:32;103629.53;;;1.10;95.13
60437;BME280;46289;51.992;4.498;2023-02-14T03:18:43;103630.09;;;1.03;94.29
60437;BME280;46289;51.992;4.498;2023-02-14T03:21:16;103636.78;;;0.98;93.98
60437;BME280;46289;51.992;4.498;2023-02-14T03:23:30;103637.44;;;0.94;94.17
60437;BME280;46289;51.992;4.498;2023-02-14T03:25:42;103631.19;;;0.88;94.48
60437;BME280;46289;51.992;4.498;2023-02-14T03:27:55;103638.81;;;0.85;94.30
60437;BME280;46289;51.992;4.498;2023-02-14T03:30:08;103640.44;;;0.83;94.65
60437;BME280;46289;51.992;4.498;2023-02-14T03:32:22;103638.47;;;0.78;94.52
60437;BME280;46289;51.992;4.498;2023-02-14T03:34:42;103637.47;;;0.74;94.12
60437;BME280;46289;51.992;4.498;2023-02-14T03:36:53;103632.94;;;0.70;94.33
60437;BME280;46289;51.992;4.498;2023-02-14T03:39:06;103639.91;;;0.71;94.50
60437;BME280;46289;51.992;4.498;2023-02-14T03:41:18;103641.44;;;0.68;94.17
60437;BME280;46289;51.992;4.498;2023-02-14T03:43:27;103632.72;;;0.65;94.51
60437;BME280;46289;51.992;4.498;2023-02-14T03:45:41;103632.53;;;0.61;93.99
60437;BME280;46289;51.992;4.498;2023-02-14T03:47:50;103626.53;;;0.62;94.64
60437;BME280;46289;51.992;4.498;2023-02-14T03:50:02;103636.75;;;0.59;94.16
60437;BME280;46289;51.992;4.498;2023-02-14T03:52:09;103624.47;;;0.55;93.96
60437;BME280;46289;51.992;4.498;2023-02-14T03:54:23;103624.47;;;0.55;94.25
60437;BME280;46289;51.992;4.498;2023-02-14T03:56:33;103630.47;;;0.54;94.56
60437;BME280;46289;51.992;4.498;2023-02-14T03:58:45;103629.53;;;0.52;94.05
60437;BME280;46289;51.992;4.498;2023-02-14T04:00:56;103629.38;;;0.49;94.04
60437;BME280;46289;51.992;4.498;2023-02-14T04:03:05;103625.09;;;0.49;94.35
60437;BME280;46289;51.992;4.498;2023-02-14T04:05:22;103620.78;;;0.50;94.49
60437;BME280;46289;51.992;4.498;2023-02-14T04:07:28;103618.16;;;0.48;94.12
60437;BME280;46289;51.992;4.498;2023-02-14T04:09:36;103619.03;;;0.49;94.17
60437;BME280;46289;51.992;4.498;2023-02-14T04:11:41;103612.97;;;0.48;94.11
60437;BME280;46289;51.992;4.498;2023-02-14T04:13:47;103608.69;;;0.49;94.80
60437;BME280;46289;51.992;4.498;2023-02-14T04:15:52;103615.63;;;0.50;94.57
60437;BME280;46289;51.992;4.498;2023-02-14T04:18:00;103617.09;;;0.44;94.26
60437;BME280;46289;51.992;4.498;2023-02-14T04:20:17;103614.59;;;0.46;95.07
60437;BME280;46289;51.992;4.498;2023-02-14T04:22:22;103615.47;;;0.47;94.63
60437;BME280;46289;51.992;4.498;2023-02-14T04:24:27;103617.09;;;0.44;94.61
60437;BME280;46289;51.992;4.498;2023-02-14T04:26:35;103614.47;;;0.43;94.02
60437;BME280;46289;51.992;4.498;2023-02-14T04:28:40;103615.34;;;0.43;94.04
60437;BME280;46289;51.992;4.498;2023-02-14T04:30:45;103622.09;;;0.40;94.24
60437;BME280;46289;51.992;4.498;2023-02-14T04:32:50;103622.16;;;0.41;94.70
60437;BME280;46289;51.992;4.498;2023-02-14T04:34:55;103622.84;;;0.37;94.14
60437;BME280;46289;51.992;4.498;2023-02-14T04:37:00;103620.16;;;0.36;93.90
60437;BME280;46289;51.992;4.498;2023-02-14T04:39:05;103621.13;;;0.38;94.36
60437;BME280;46289;51.992;4.498;2023-02-14T04:41:10;103618.94;;;0.47;95.29
60437;BME280;46289;51.992;4.498;2023-02-14T04:43:18;103617.31;;;0.49;95.43
60437;BME280;46289;51.992;4.498;2023-02-14T04:45:23;103614.59;;;0.46;95.29
60437;BME280;46289;51.992;4.498;2023-02-14T04:47:28;103617.53;;;0.54;96.14
60437;BME280;46289;51.992;4.498;2023-02-14T04:49:33;103620.97;;;0.53;95.69
60437;BME280;46289;51.992;4.498;2023-02-14T04:51:38;103623.06;;;0.61;96.22
60437;BME280;46289;51.992;4.498;2023-02-14T04:53:44;103619.53;;;0.59;96.19
60437;BME280;46289;51.992;4.498;2023-02-14T04:55:52;103616.06;;;0.59;95.87
60437;BME280;46289;51.992;4.498;2023-02-14T04:57:57;103620.34;;;0.58;95.99
60437;BME280;46289;51.992;4.498;2023-02-14T05:00:06;103616.81;;;0.56;96.14
60437;BME280;46289;51.992;4.498;2023-02-14T05:02:12;103622.44;;;0.48;95.39
60437;BME280;46289;51.992;4.498;2023-02-14T05:04:19;103621.25;;;0.41;95.35
60437;BME280;46289;51.992;4.498;2023-02-14T05:06:25;103630.00;;;0.43;95.39
60437;BME280;46289;51.992;4.498;2023-02-14T05:08:31;103626.44;;;0.41;95.14
60437;BME280;46289;51.992;4.498;2023-02-14T05:10:36;103618.81;;;0.44;95.81
60437;BME280;46289;51.992;4.498;2023-02-14T05:12:41;103620.53;;;0.43;96.20
60437;BME280;46289;51.992;4.498;2023-02-14T05:14:49;103615.00;;;0.36;95.56
60437;BME280;46289;51.992;4.498;2023-02-14T05:16:56;103619.16;;;0.32;95.27
60437;BME280;46289;51.992;4.498;2023-02-14T05:19:01;103622.53;;;0.31;95.42
60437;BME280;46289;51.992;4.498;2023-02-14T05:21:07;103624.09;;;0.28;95.26
60437;BME280;46289;51.992;4.498;2023-02-14T05:23:12;103622.34;;;0.27;95.24
60437;BME280;46289;51.992;4.498;2023-02-14T05:25:17;103628.31;;;0.26;95.54
60437;BME280;46289;51.992;4.498;2023-02-14T05:27:22;103621.44;;;0.26;95.84
60437;BME280;46289;51.992;4.498;2023-02-14T05:29:27;103619.94;;;0.31;96.37
60437;BME280;46289;51.992;4.498;2023-02-14T05:31:33;103618.44;;;0.17;95.19
60437;BME280;46289;51.992;4.498;2023-02-14T05:33:40;103620.88;;;0.14;94.97
60437;BME280;46289;51.992;4.498;2023-02-14T05:35:49;103615.69;;;0.14;95.04
60437;BME280;46289;51.992;4.498;2023-02-14T05:37:54;103607.06;;;0.13;95.30
60437;BME280;46289;51.992;4.498;2023-02-14T05:40:02;103613.78;;;0.10;95.21
60437;BME280;46289;51.992;4.498;2023-02-14T05:42:08;103614.50;;;0.07;94.80
60437;BME280;46289;51.992;4.498;2023-02-14T05:44:12;103612.97;;;0.11;95.26
60437;BME280;46289;51.992;4.498;2023-02-14T05:46:18;103612.91;;;0.09;94.86
60437;BME280;46289;51.992;4.498;2023-02-14T05:48:23;103614.09;;;0.16;95.88
60437;BME280;46289;51.992;4.498;2023-02-14T05:50:31;103605.34;;;0.14;95.54
60437;BME280;46289;51.992;4.498;2023-02-14T05:52:37;103612.56;;;0.21;95.79
60437;BME280;46289;51.992;4.498;2023-02-14T05:54:42;103607.41;;;0.21;95.59
60437;BME280;46289;51.992;4.498;2023-02-14T05:56:48;103617.59;;;0.18;95.47
60437;BME280;46289;51.992;4.498;2023-02-14T05:58:53;103610.66;;;0.17;95.57
60437;BME280;46289;51.992;4.498;2023-02-14T06:00:58;103605.50;;;0.17;95.93
60437;BME280;46289;51.992;4.498;2023-02-14T06:03:03;103611.63;;;0.19;96.20
60437;BME280;46289;51.992;4.498;2023-02-14T06:05:09;103603.75;;;0.16;95.96
60437;BME280;46289;51.992;4.498;2023-02-14T06:07:16;103605.34;;;0.32;97.12
60437;BME280;46289;51.992;4.498;2023-02-14T06:09:21;103601.34;;;0.20;96.22
60437;BME280;46289;51.992;4.498;2023-02-14T06:11:26;103607.06;;;0.13;95.85
60437;BME280;46289;51.992;4.498;2023-02-14T06:13:31;103600.19;;;0.14;95.92
60437;BME280;46289;51.992;4.498;2023-02-14T06:15:37;103599.44;;;0.16;96.08
60437;BME280;46289;51.992;4.498;2023-02-14T06:17:42;103606.31;;;0.16;96.21
60437;BME280;46289;51.992;4.498;2023-02-14T06:19:50;103608.91;;;0.16;95.96
60437;BME280;46289;51.992;4.498;2023-02-14T06:21:55;103599.59;;;0.19;96.65
60437;BME280;46289;51.992;4.498;2023-02-14T06:24:03;103605.50;;;0.17;96.48
60437;BME280;46289;51.992;4.498;2023-02-14T06:26:08;103611.50;;;0.16;96.33
60437;BME280;46289;51.992;4.498;2023-02-14T06:28:13;103606.31;;;0.16;96.84
60437;BME280;46289;51.992;4.498;2023-02-14T06:30:18;103600.78;;;0.08;96.08
60437;BME280;46289;51.992;4.498;2023-02-14T06:32:23;103609.66;;;0.13;96.49
60437;BME280;46289;51.992;4.498;2023-02-14T06:34:28;103607.72;;;0.09;96.29
60437;BME280;46289;51.992;4.498;2023-02-14T06:36:33;103607.94;;;0.14;96.52
60437;BME280;46289;51.992;4.498;2023-02-14T06:38:38;103604.53;;;0.15;96.37
60437;BME280;46289;51.992;4.498;2023-02-14T06:40:45;103613.16;;;0.15;96.19
60437;BME280;46289;51.992;4.498;2023-02-14T06:42:50;103611.28;;;0.11;96.06
60437;BME280;46289;51.992;4.498;2023-02-14T06:44:55;103605.22;;;0.11;96.14
60437;BME280;46289;51.992;4.498;2023-02-14T06:47:00;103608.59;;;0.10;96.07
60437;BME280;46289;51.992;4.498;2023-02-14T06:49:05;103610.53;;;0.14;96.97
60437;BME280;46289;51.992;4.498;2023-02-14T06:51:10;103608.47;;;0.07;96.33
60437;BME280;46289;51.992;4.498;2023-02-14T06:53:15;103606.31;;;0.16;96.20
60437;BME280;46289;51.992;4.498;2023-02-14T06:55:20;103605.50;;;0.17;96.11
60437;BME280;46289;51.992;4.498;2023-02-14T06:57:28;103607.41;;;0.21;96.39
60437;BME280;46289;51.992;4.498;2023-02-14T06:59:33;103602.31;;;0.22;96.43
60437;BME280;46289;51.992;4.498;2023-02-14T07:01:38;103604.25;;;0.27;96.83
60437;BME280;46289;51.992;4.498;2023-02-14T07:03:43;103605.91;;;0.26;96.43
60437;BME280;46289;51.992;4.498;2023-02-14T07:05:49;103610.16;;;0.24;96.06
60437;BME280;46289;51.992;4.498;2023-02-14T07:07:53;103610.72;;;0.18;96.17
60437;BME280;46289;51.992;4.498;2023-02-14T07:09:58;103614.09;;;0.16;95.96
60437;BME280;46289;51.992;4.498;2023-02-14T07:12:03;103613.16;;;0.15;96.22
60437;BME280;46289;51.992;4.498;2023-02-14T07:14:12;103612.44;;;0.18;96.24
60437;BME280;46289;51.992;4.498;2023-02-14T07:16:17;103617.56;;;0.16;95.97
60437;BME280;46289;51.992;4.498;2023-02-14T07:18:21;103627.81;;;0.15;96.00
60437;BME280;46289;51.992;4.498;2023-02-14T07:20:26;103617.59;;;0.18;96.25
60437;BME280;46289;51.992;4.498;2023-02-14T07:22:31;103619.38;;;0.19;96.22
60437;BME280;46289;51.992;4.498;2023-02-14T07:24:38;103615.09;;;0.19;96.13
60437;BME280;46289;51.992;4.498;2023-02-14T07:26:44;103629.88;;;0.22;96.33
60437;BME280;46289;51.992;4.498;2023-02-14T07:28:52;103624.56;;;0.19;96.07
60437;BME280;46289;51.992;4.498;2023-02-14T07:31:02;103626.09;;;0.15;95.79
60437;BME280;46289;51.992;4.498;2023-02-14T07:33:07;103623.66;;;0.18;95.86
60437;BME280;46289;51.992;4.498;2023-02-14T07:35:13;103629.72;;;0.19;95.83
60437;BME280;46289;51.992;4.498;2023-02-14T07:37:18;103626.41;;;0.21;96.20
60437;BME280;46289;51.992;4.498;2023-02-14T07:39:23;103627.28;;;0.22;95.94
60437;BME280;46289;51.992;4.498;2023-02-14T07:41:28;103627.16;;;0.19;95.76
60437;BME280;46289;51.992;4.498;2023-02-14T07:43:33;103623.66;;;0.18;95.51
60437;BME280;46289;51.992;4.498;2023-02-14T07:45:37;103618.47;;;0.18;95.42
60437;BME280;46289;51.992;4.498;2023-02-14T07:47:50;103622.13;;;0.22;95.85
60437;BME280;46289;51.992;4.498;2023-02-14T07:49:58;103626.47;;;0.23;95.62
60437;BME280;46289;51.992;4.498;2023-02-14T07:52:03;103623.13;;;0.26;95.79
60437;BME280;46289;51.992;4.498;2023-02-14T07:54:08;103615.38;;;0.26;95.79
60437;BME280;46289;51.992;4.498;2023-02-14T07:56:13;103620.03;;;0.33;95.89
60437;BME280;46289;51.992;4.498;2023-02-14T07:58:18;103619.06;;;0.31;95.51
60437;BME280;46289;51.992;4.498;2023-02-14T08:00:23;103614.13;;;0.35;95.88
60437;BME280;46289;51.992;4.498;2023-02-14T08:02:28;103624.72;;;0.41;95.82
60437;BME280;46289;51.992;4.498;2023-02-14T08:04:35;103624.34;;;0.52;96.48
60437;BME280;46289;51.992;4.498;2023-02-14T08:06:41;103629.72;;;0.56;95.96
60437;BME280;46289;51.992;4.498;2023-02-14T08:08:48;103626.41;;;0.59;96.06
60437;BME280;46289;51.992;4.498;2023-02-14T08:10:53;103619.66;;;0.62;95.91
60437;BME280;46289;51.992;4.498;2023-02-14T08:13:00;103625.94;;;0.68;95.99
60437;BME280;46289;51.992;4.498;2023-02-14T08:15:03;103616.06;;;0.78;96.39
60437;BME280;46289;51.992;4.498;2023-02-14T08:17:20;103604.34;;;1.06;97.15
60437;BME280;46289;51.992;4.498;2023-02-14T08:19:26;103608.66;;;1.26;97.79
60437;BME280;46289;51.992;4.498;2023-02-14T08:21:33;103618.56;;;1.37;97.18
60437;BME280;46289;51.992;4.498;2023-02-14T08:23:38;103621.69;;;1.49;97.05
60437;BME280;46289;51.992;4.498;2023-02-14T08:25:43;103622.56;;;1.70;97.19
60437;BME280;46289;51.992;4.498;2023-02-14T08:27:48;103616.91;;;2.02;97.89
60437;BME280;46289;51.992;4.498;2023-02-14T08:29:53;103621.91;;;1.97;97.01
60437;BME280;46289;51.992;4.498;2023-02-14T08:31:58;103618.97;;;2.10;97.02
60437;BME280;46289;51.992;4.498;2023-02-14T08:34:04;103627.31;;;2.24;96.92
60437;BME280;46289;51.992;4.498;2023-02-14T08:36:10;103624.66;;;2.45;97.56
60437;BME280;46289;51.992;4.498;2023-02-14T08:38:20;103614.31;;;2.47;97.06
60437;BME280;46289;51.992;4.498;2023-02-14T08:40:25;103611.44;;;2.61;96.96
60437;BME280;46289;51.992;4.498;2023-02-14T08:42:30;103614.69;;;2.80;96.95
60437;BME280;46289;51.992;4.498;2023-02-14T08:44:35;103606.94;;;2.81;96.59
60437;BME280;46289;51.992;4.498;2023-02-14T08:46:40;103612.91;;;2.79;96.39
60437;BME280;46289;51.992;4.498;2023-02-14T08:48:45;103604.78;;;3.18;96.65
60437;BME280;46289;51.992;4.498;2023-02-14T08:50:51;103609.03;;;3.16;96.29
60437;BME280;46289;51.992;4.498;2023-02-14T08:53:00;103611.97;;;3.25;96.44
60437;BME280;46289;51.992;4.498;2023-02-14T08:55:08;103609.03;;;3.41;96.23
60437;BME280;46289;51.992;4.498;2023-02-14T08:57:13;103605.19;;;3.56;95.89
60437;BME280;46289;51.992;4.498;2023-02-14T08:59:19;103610.53;;;3.60;95.55
60437;BME280;46289;51.992;4.498;2023-02-14T09:01:24;103602.94;;;3.66;95.50
60437;BME280;46289;51.992;4.498;2023-02-14T09:03:31;103599.13;;;3.82;95.10
60437;BME280;46289;51.992;4.498;2023-02-14T09:05:39;103597.88;;;3.98;94.91
60437;BME280;46289;51.992;4.498;2023-02-14T09:07:44;103606.19;;;4.15;94.22
60437;BME280;46289;51.992;4.498;2023-02-14T09:09:49;103607.28;;;4.22;94.29
60437;BME280;46289;51.992;4.498;2023-02-14T09:11:56;103604.22;;;4.35;94.04
60437;BME280;46289;51.992;4.498;2023-02-14T09:14:01;103606.25;;;4.45;93.85
60437;BME280;46289;51.992;4.498;2023-02-14T09:16:07;103603.16;;;4.58;93.40
60437;BME280;46289;51.992;4.498;2023-02-14T09:18:13;103595.66;;;4.69;93.05
60437;BME280;46289;51.992;4.498;2023-02-14T09:20:18;103608.22;;;4.84;92.90
60437;BME280;46289;51.992;4.498;2023-02-14T09:22:23;103597.19;;;4.93;93.28
60437;BME280;46289;51.992;4.498;2023-02-14T09:24:29;103600.31;;;5.13;91.51
60437;BME280;46289;51.992;4.498;2023-02-14T09:26:35;103600.59;;;5.23;90.84
60437;BME280;46289;51.992;4.498;2023-02-14T09:28:49;103598.25;;;5.34;90.64
60437;BME280;46289;51.992;4.498;2023-02-14T09:30:54;103601.97;;;5.44;91.03
60437;BME280;46289;51.992;4.498;2023-02-14T09:33:02;103600.63;;;5.58;90.19
60437;BME280;46289;51.992;4.498;2023-02-14T09:35:07;103598.16;;;5.64;89.11
60437;BME280;46289;51.992;4.498;2023-02-14T09:37:13;103594.19;;;5.82;89.36
60437;BME280;46289;51.992;4.498;2023-02-14T09:39:15;103593.75;;;5.98;88.34
60437;BME280;46289;51.992;4.498;2023-02-14T09:43:57;103603.00;;;6.23;87.38
60437;BME280;46289;51.992;4.498;2023-02-14T09:46:05;103597.84;;;6.26;86.83
60437;BME280;46289;51.992;4.498;2023-02-14T09:48:16;103591.31;;;6.45;87.32
60437;BME280;46289;51.992;4.498;2023-02-14T09:50:28;103593.19;;;6.52;86.64
60437;BME280;46289;51.992;4.498;2023-02-14T09:52:35;103593.34;;;6.60;86.12
60437;BME280;46289;51.992;4.498;2023-02-14T09:54:42;103595.28;;;6.70;85.08
60437;BME280;46289;51.992;4.498;2023-02-14T09:56:52;103594.81;;;6.91;84.74
60437;BME280;46289;51.992;4.498;2023-02-14T09:59:06;103593.41;;;7.09;82.66
60437;BME280;46289;51.992;4.498;2023-02-14T10:01:17;103595.50;;;7.28;81.95
60437;BME280;46289;51.992;4.498;2023-02-14T10:03:52;103597.50;;;7.43;79.87
60437;BME280;46289;51.992;4.498;2023-02-14T10:06:09;103595.84;;;7.50;79.96
60437;BME280;46289;51.992;4.498;2023-02-14T10:08:28;103602.09;;;7.56;78.70
60437;BME280;46289;51.992;4.498;2023-02-14T10:10:42;103593.38;;;7.57;79.23
60437;BME280;46289;51.992;4.498;2023-02-14T10:12:51;103597.28;;;7.82;78.54
60437;BME280;46289;51.992;4.498;2023-02-14T10:15:06;103594.66;;;7.84;77.75
60437;BME280;46289;51.992;4.498;2023-02-14T10:17:13;103590.47;;;7.97;78.10
60437;BME280;46289;51.992;4.498;2023-02-14T10:19:22;103588.09;;;8.12;78.03
60437;BME280;46289;51.992;4.498;2023-02-14T10:21:32;103596.97;;;8.23;77.95
60437;BME280;46289;51.992;4.498;2023-02-14T10:23:41;103587.25;;;8.14;76.12
60437;BME280;46289;51.992;4.498;2023-02-14T10:25:53;103591.84;;;8.29;77.04
60437;BME280;46289;51.992;4.498;2023-02-14T10:28:00;103588.53;;;8.44;75.54
60437;BME280;46289;51.992;4.498;2023-02-14T10:30:11;103587.66;;;8.44;75.79
60437;BME280;46289;51.992;4.498;2023-02-14T10:32:21;103586.78;;;8.45;74.95
60437;BME280;46289;51.992;4.498;2023-02-14T10:34:34;103577.25;;;8.50;75.72
60437;BME280;46289;51.992;4.498;2023-02-14T10:39:35;103580.19;;;8.74;75.58
60437;BME280;46289;51.992;4.498;2023-02-14T10:41:50;103579.22;;;8.66;74.69
60437;BME280;46289;51.992;4.498;2023-02-14T10:44:11;103578.44;;;8.76;75.22
60437;BME280;46289;51.992;4.498;2023-02-14T10:46:29;103576.09;;;9.01;74.68
60437;BME280;46289;51.992;4.498;2023-02-14T10:48:45;103569.13;;;9.05;74.49
60437;BME280;46289;51.992;4.498;2023-02-14T10:51:00;103571.88;;;9.21;73.66
60437;BME280;46289;51.992;4.498;2023-02-14T10:53:13;103566.63;;;9.21;73.62
60437;BME280;46289;51.992;4.498;2023-02-14T10:55:25;103566.00;;;9.49;73.68
60437;BME280;46289;51.992;4.498;2023-02-14T10:57:36;103560.66;;;9.36;72.56
60437;BME280;46289;51.992;4.498;2023-02-14T10:59:48;103561.63;;;9.46;73.56
60437;BME280;46289;51.992;4.498;2023-02-14T11:01:59;103566.91;;;9.51;73.03
60437;BME280;46289;51.992;4.498;2023-02-14T11:04:08;103558.25;;;9.64;71.36
60437;BME280;46289;51.992;4.498;2023-02-14T11:06:15;103557.38;;;9.65;71.29
60437;BME280;46289;51.992;4.498;2023-02-14T11:08:24;103554.81;;;9.76;71.12
60437;BME280;46289;51.992;4.498;2023-02-14T11:10:31;103553.97;;;9.80;71.84
60437;BME280;46289;51.992;4.498;2023-02-14T11:12:39;103552.19;;;9.79;71.67
60437;BME280;46289;51.992;4.498;2023-02-14T11:14:44;103547.91;;;9.92;71.79
60437;BME280;46289;51.992;4.498;2023-02-14T11:16:53;103544.44;;;9.97;70.84
60437;BME280;46289;51.992;4.498;2023-02-14T11:19:18;103542.75;;;10.08;69.83
60437;BME280;46289;51.992;4.498;2023-02-14T11:21:39;103539.28;;;10.14;70.06
60437;BME280;46289;51.992;4.498;2023-02-14T11:23:46;103544.63;;;10.31;69.29
60437;BME280;46289;51.992;4.498;2023-02-14T11:25:54;103534.13;;;10.29;69.82
60437;BME280;46289;51.992;4.498;2023-02-14T11:28:03;103538.50;;;10.33;68.41
60437;BME280;46289;51.992;4.498;2023-02-14T11:30:16;103535.06;;;10.48;68.79
60437;BME280;46289;51.992;4.498;2023-02-14T11:32:24;103534.22;;;10.59;68.45
60437;BME280;46289;51.992;4.498;2023-02-14T11:34:36;103529.84;;;10.68;68.20
60437;BME280;46289;51.992;4.498;2023-02-14T11:36:47;103528.13;;;10.83;67.34